sensor_id;sensor_type;location;lat;lon;timestamp;P1;durP1;ratioP1;P2;durP2;ratioP2
28003;SDS011;15330;51.234;6.754;2023-03-03T00:00:18;85.72;;;39.83;;
28003;SDS011;15330;51.234;6.754;2023-03-03T00:02:44;83.90;;;39.15;;
28003;SDS011;15330;51.234;6.754;2023-03-03T00:05:09;82.97;;;39.28;;
28003;SDS011;15330;51.234;6.754;2023-03-03T00:07:39;90.25;;;40.25;;
28003;SDS011;15330;51.234;6.754;2023-03-03T00:10:07;88.25;;;40.40;;
28003;SDS011;15330;51.234;6.754;2023-03-03T00:12:33;89.03;;;41.60;;
28003;SDS011;15330;51.234;6.754;2023-03-03T00:14:59;95.20;;;41.95;;
28003;SDS011;15330;51.234;6.754;2023-03-03T00:17:26;102.25;;;43.38;;
28003;SDS011;15330;51.234;6.754;2023-03-03T00:19:53;102.15;;;43.10;;
28003;SDS011;15330;51.234;6.754;2023-03-03T00:24:53;104.60;;;43.50;;
28003;SDS011;15330;51.234;6.754;2023-03-03T00:27:26;109.40;;;44.80;;
28003;SDS011;15330;51.234;6.754;2023-03-03T00:29:55;106.40;;;43.55;;
28003;SDS011;15330;51.234;6.754;2023-03-03T00:32:39;108.40;;;43.20;;
28003;SDS011;15330;51.234;6.754;2023-03-03T00:38:00;98.70;;;39.65;;
28003;SDS011;15330;51.234;6.754;2023-03-03T00:40:37;98.28;;;41.17;;
28003;SDS011;15330;51.234;6.754;2023-03-03T00:43:17;104.45;;;42.65;;
28003;SDS011;15330;51.234;6.754;2023-03-03T00:50:46;102.47;;;41.85;;
28003;SDS011;15330;51.234;6.754;2023-03-03T00:53:13;107.43;;;41.53;;
28003;SDS011;15330;51.234;6.754;2023-03-03T00:55:41;110.72;;;43.75;;
28003;SDS011;15330;51.234;6.754;2023-03-03T00:58:07;108.22;;;42.78;;
28003;SDS011;15330;51.234;6.754;2023-03-03T01:00:32;111.25;;;44.00;;
28003;SDS011;15330;51.234;6.754;2023-03-03T01:03:00;109.75;;;44.38;;
28003;SDS011;15330;51.234;6.754;2023-03-03T01:05:28;107.22;;;43.20;;
28003;SDS011;15330;51.234;6.754;2023-03-03T01:07:54;117.90;;;45.35;;
28003;SDS011;15330;51.234;6.754;2023-03-03T01:10:19;115.95;;;47.08;;
28003;SDS011;15330;51.234;6.754;2023-03-03T01:12:44;126.55;;;48.72;;
28003;SDS011;15330;51.234;6.754;2023-03-03T01:15:11;121.38;;;46.42;;
28003;SDS011;15330;51.234;6.754;2023-03-03T01:17:38;113.85;;;44.90;;
28003;SDS011;15330;51.234;6.754;2023-03-03T01:20:04;112.57;;;47.20;;
28003;SDS011;15330;51.234;6.754;2023-03-03T01:22:31;114.18;;;46.38;;
28003;SDS011;15330;51.234;6.754;2023-03-03T01:24:56;124.25;;;47.20;;
28003;SDS011;15330;51.234;6.754;2023-03-03T01:27:22;127.60;;;48.47;;
28003;SDS011;15330;51.234;6.754;2023-03-03T01:29:47;119.60;;;47.20;;
28003;SDS011;15330;51.234;6.754;2023-03-03T01:32:13;112.13;;;43.58;;
28003;SDS011;15330;51.234;6.754;2023-03-03T01:34:38;125.38;;;47.38;;
28003;SDS011;15330;51.234;6.754;2023-03-03T01:37:03;116.00;;;45.83;;
28003;SDS011;15330;51.234;6.754;2023-03-03T01:39:29;111.28;;;44.92;;
28003;SDS011;15330;51.234;6.754;2023-03-03T01:41:54;115.68;;;45.10;;
28003;SDS011;15330;51.234;6.754;2023-03-03T01:44:19;115.47;;;47.05;;
28003;SDS011;15330;51.234;6.754;2023-03-03T01:46:46;117.13;;;45.03;;
28003;SDS011;15330;51.234;6.754;2023-03-03T01:49:19;116.07;;;46.83;;
28003;SDS011;15330;51.234;6.754;2023-03-03T01:52:02;111.75;;;44.88;;
28003;SDS011;15330;51.234;6.754;2023-03-03T01:54:41;115.82;;;46.90;;
28003;SDS011;15330;51.234;6.754;2023-03-03T01:57:12;126.28;;;50.22;;
28003;SDS011;15330;51.234;6.754;2023-03-03T01:59:43;135.02;;;51.35;;
28003;SDS011;15330;51.234;6.754;2023-03-03T02:02:13;131.85;;;50.50;;
28003;SDS011;15330;51.234;6.754;2023-03-03T02:04:39;137.32;;;51.10;;
28003;SDS011;15330;51.234;6.754;2023-03-03T02:07:06;145.52;;;51.95;;
28003;SDS011;15330;51.234;6.754;2023-03-03T02:12:19;129.88;;;50.20;;
28003;SDS011;15330;51.234;6.754;2023-03-03T02:14:50;138.82;;;51.22;;
28003;SDS011;15330;51.234;6.754;2023-03-03T02:17:16;131.85;;;50.83;;
28003;SDS011;15330;51.234;6.754;2023-03-03T02:20:02;141.15;;;53.08;;
28003;SDS011;15330;51.234;6.754;2023-03-03T02:25:30;135.25;;;48.92;;
28003;SDS011;15330;51.234;6.754;2023-03-03T02:28:09;140.45;;;52.47;;
28003;SDS011;15330;51.234;6.754;2023-03-03T02:30:37;140.75;;;48.58;;
28003;SDS011;15330;51.234;6.754;2023-03-03T02:33:03;134.38;;;49.78;;
28003;SDS011;15330;51.234;6.754;2023-03-03T02:35:31;141.18;;;52.65;;
28003;SDS011;15330;51.234;6.754;2023-03-03T02:38:01;141.35;;;52.92;;
28003;SDS011;15330;51.234;6.754;2023-03-03T02:43:22;144.95;;;53.10;;
28003;SDS011;15330;51.234;6.754;2023-03-03T02:45:51;133.15;;;51.50;;
28003;SDS011;15330;51.234;6.754;2023-03-03T02:48:16;142.35;;;51.35;;
28003;SDS011;15330;51.234;6.754;2023-03-03T02:50:42;137.35;;;53.92;;
28003;SDS011;15330;51.234;6.754;2023-03-03T02:53:07;130.55;;;48.70;;
28003;SDS011;15330;51.234;6.754;2023-03-03T02:55:32;125.28;;;47.75;;
28003;SDS011;15330;51.234;6.754;2023-03-03T02:57:58;132.88;;;52.25;;
28003;SDS011;15330;51.234;6.754;2023-03-03T03:00:23;121.90;;;48.05;;
28003;SDS011;15330;51.234;6.754;2023-03-03T03:02:48;119.95;;;48.35;;
28003;SDS011;15330;51.234;6.754;2023-03-03T03:05:14;134.20;;;48.75;;
28003;SDS011;15330;51.234;6.754;2023-03-03T03:07:39;123.60;;;48.13;;
28003;SDS011;15330;51.234;6.754;2023-03-03T03:10:05;129.77;;;47.72;;
28003;SDS011;15330;51.234;6.754;2023-03-03T03:12:30;123.85;;;46.10;;
28003;SDS011;15330;51.234;6.754;2023-03-03T03:14:56;137.00;;;50.10;;
28003;SDS011;15330;51.234;6.754;2023-03-03T03:17:22;137.50;;;48.55;;
28003;SDS011;15330;51.234;6.754;2023-03-03T03:19:47;135.63;;;48.72;;
28003;SDS011;15330;51.234;6.754;2023-03-03T03:22:12;139.20;;;48.25;;
28003;SDS011;15330;51.234;6.754;2023-03-03T03:24:38;145.57;;;51.25;;
28003;SDS011;15330;51.234;6.754;2023-03-03T03:27:04;144.55;;;51.20;;
28003;SDS011;15330;51.234;6.754;2023-03-03T03:29:29;144.45;;;50.15;;
28003;SDS011;15330;51.234;6.754;2023-03-03T03:31:54;146.85;;;50.47;;
28003;SDS011;15330;51.234;6.754;2023-03-03T03:34:20;146.32;;;50.30;;
28003;SDS011;15330;51.234;6.754;2023-03-03T03:36:45;148.13;;;50.88;;
28003;SDS011;15330;51.234;6.754;2023-03-03T03:39:11;139.90;;;47.75;;
28003;SDS011;15330;51.234;6.754;2023-03-03T03:41:36;138.35;;;47.75;;
28003;SDS011;15330;51.234;6.754;2023-03-03T03:44:02;144.15;;;48.30;;
28003;SDS011;15330;51.234;6.754;2023-03-03T03:46:27;139.90;;;46.08;;
28003;SDS011;15330;51.234;6.754;2023-03-03T03:48:53;134.98;;;48.88;;
28003;SDS011;15330;51.234;6.754;2023-03-03T03:51:18;127.57;;;46.42;;
28003;SDS011;15330;51.234;6.754;2023-03-03T03:53:43;127.10;;;45.90;;
28003;SDS011;15330;51.234;6.754;2023-03-03T03:56:09;133.27;;;45.97;;
28003;SDS011;15330;51.234;6.754;2023-03-03T03:58:35;116.85;;;40.90;;
28003;SDS011;15330;51.234;6.754;2023-03-03T04:01:01;125.25;;;44.40;;
28003;SDS011;15330;51.234;6.754;2023-03-03T04:03:27;125.18;;;43.10;;
28003;SDS011;15330;51.234;6.754;2023-03-03T04:05:53;125.78;;;43.42;;
28003;SDS011;15330;51.234;6.754;2023-03-03T04:08:19;126.38;;;45.25;;
28003;SDS011;15330;51.234;6.754;2023-03-03T04:10:44;115.60;;;43.67;;
28003;SDS011;15330;51.234;6.754;2023-03-03T04:13:10;127.03;;;45.67;;
28003;SDS011;15330;51.234;6.754;2023-03-03T04:15:35;112.50;;;41.85;;
28003;SDS011;15330;51.234;6.754;2023-03-03T04:18:01;111.80;;;40.70;;
28003;SDS011;15330;51.234;6.754;2023-03-03T04:20:27;117.20;;;40.63;;
28003;SDS011;15330;51.234;6.754;2023-03-03T04:22:52;114.47;;;41.22;;
28003;SDS011;15330;51.234;6.754;2023-03-03T04:25:18;117.65;;;41.78;;
28003;SDS011;15330;51.234;6.754;2023-03-03T04:27:43;105.72;;;40.47;;
28003;SDS011;15330;51.234;6.754;2023-03-03T04:30:09;114.45;;;40.00;;
28003;SDS011;15330;51.234;6.754;2023-03-03T04:32:35;106.88;;;38.58;;
28003;SDS011;15330;51.234;6.754;2023-03-03T04:35:01;113.40;;;39.80;;
28003;SDS011;15330;51.234;6.754;2023-03-03T04:37:26;117.47;;;35.58;;
28003;SDS011;15330;51.234;6.754;2023-03-03T04:39:52;115.30;;;39.45;;
28003;SDS011;15330;51.234;6.754;2023-03-03T04:42:17;109.68;;;37.20;;
28003;SDS011;15330;51.234;6.754;2023-03-03T04:44:42;104.30;;;34.95;;
28003;SDS011;15330;51.234;6.754;2023-03-03T04:47:08;103.05;;;34.33;;
28003;SDS011;15330;51.234;6.754;2023-03-03T04:49:33;97.18;;;37.05;;
28003;SDS011;15330;51.234;6.754;2023-03-03T04:51:59;104.93;;;35.13;;
28003;SDS011;15330;51.234;6.754;2023-03-03T04:54:24;106.15;;;34.63;;
28003;SDS011;15330;51.234;6.754;2023-03-03T04:56:50;116.55;;;36.42;;
28003;SDS011;15330;51.234;6.754;2023-03-03T04:59:15;115.90;;;37.72;;
28003;SDS011;15330;51.234;6.754;2023-03-03T05:01:40;101.18;;;36.35;;
28003;SDS011;15330;51.234;6.754;2023-03-03T05:04:06;99.63;;;34.75;;
28003;SDS011;15330;51.234;6.754;2023-03-03T05:06:31;99.53;;;36.55;;
28003;SDS011;15330;51.234;6.754;2023-03-03T05:08:57;103.97;;;36.70;;
28003;SDS011;15330;51.234;6.754;2023-03-03T05:11:22;107.68;;;36.85;;
28003;SDS011;15330;51.234;6.754;2023-03-03T05:13:47;114.50;;;38.97;;
28003;SDS011;15330;51.234;6.754;2023-03-03T05:16:13;107.35;;;38.10;;
28003;SDS011;15330;51.234;6.754;2023-03-03T05:18:38;93.38;;;35.65;;
28003;SDS011;15330;51.234;6.754;2023-03-03T05:21:05;112.40;;;39.45;;
28003;SDS011;15330;51.234;6.754;2023-03-03T05:23:30;102.55;;;35.83;;
28003;SDS011;15330;51.234;6.754;2023-03-03T05:25:56;98.45;;;35.55;;
28003;SDS011;15330;51.234;6.754;2023-03-03T05:28:21;95.32;;;34.13;;
28003;SDS011;15330;51.234;6.754;2023-03-03T05:30:47;93.25;;;35.30;;
28003;SDS011;15330;51.234;6.754;2023-03-03T05:33:13;85.20;;;30.42;;
28003;SDS011;15330;51.234;6.754;2023-03-03T05:35:40;89.32;;;33.00;;
28003;SDS011;15330;51.234;6.754;2023-03-03T05:38:06;88.75;;;32.13;;
28003;SDS011;15330;51.234;6.754;2023-03-03T05:40:32;81.78;;;31.00;;
28003;SDS011;15330;51.234;6.754;2023-03-03T05:42:57;83.53;;;32.60;;
28003;SDS011;15330;51.234;6.754;2023-03-03T05:45:22;82.50;;;32.80;;
28003;SDS011;15330;51.234;6.754;2023-03-03T05:47:51;85.32;;;32.15;;
28003;SDS011;15330;51.234;6.754;2023-03-03T05:50:17;81.80;;;30.77;;
28003;SDS011;15330;51.234;6.754;2023-03-03T05:52:43;91.45;;;32.13;;
28003;SDS011;15330;51.234;6.754;2023-03-03T05:55:11;83.70;;;31.75;;
28003;SDS011;15330;51.234;6.754;2023-03-03T05:57:36;90.80;;;32.42;;
28003;SDS011;15330;51.234;6.754;2023-03-03T06:00:05;98.13;;;32.30;;
28003;SDS011;15330;51.234;6.754;2023-03-03T06:02:32;87.35;;;31.95;;
28003;SDS011;15330;51.234;6.754;2023-03-03T06:04:58;84.10;;;30.83;;
28003;SDS011;15330;51.234;6.754;2023-03-03T06:07:24;95.25;;;32.30;;
28003;SDS011;15330;51.234;6.754;2023-03-03T06:09:49;80.50;;;30.98;;
28003;SDS011;15330;51.234;6.754;2023-03-03T06:12:15;83.55;;;29.88;;
28003;SDS011;15330;51.234;6.754;2023-03-03T06:14:41;86.15;;;32.47;;
28003;SDS011;15330;51.234;6.754;2023-03-03T06:17:06;87.38;;;30.65;;
28003;SDS011;15330;51.234;6.754;2023-03-03T06:19:31;79.03;;;29.73;;
28003;SDS011;15330;51.234;6.754;2023-03-03T06:21:57;78.40;;;28.95;;
28003;SDS011;15330;51.234;6.754;2023-03-03T06:24:22;88.90;;;31.60;;
28003;SDS011;15330;51.234;6.754;2023-03-03T06:26:49;86.63;;;32.20;;
28003;SDS011;15330;51.234;6.754;2023-03-03T06:29:15;85.65;;;30.90;;
28003;SDS011;15330;51.234;6.754;2023-03-03T06:31:41;74.53;;;27.98;;
28003;SDS011;15330;51.234;6.754;2023-03-03T06:34:07;83.25;;;30.75;;
28003;SDS011;15330;51.234;6.754;2023-03-03T06:36:32;84.78;;;31.20;;
28003;SDS011;15330;51.234;6.754;2023-03-03T06:38:58;77.75;;;28.60;;
28003;SDS011;15330;51.234;6.754;2023-03-03T06:41:24;96.65;;;37.20;;
28003;SDS011;15330;51.234;6.754;2023-03-03T06:43:50;76.72;;;27.00;;
28003;SDS011;15330;51.234;6.754;2023-03-03T06:46:15;79.15;;;28.13;;
28003;SDS011;15330;51.234;6.754;2023-03-03T06:48:41;75.60;;;26.55;;
28003;SDS011;15330;51.234;6.754;2023-03-03T06:51:22;76.55;;;28.23;;
28003;SDS011;15330;51.234;6.754;2023-03-03T06:53:54;83.80;;;28.52;;
28003;SDS011;15330;51.234;6.754;2023-03-03T06:56:25;74.47;;;27.10;;
28003;SDS011;15330;51.234;6.754;2023-03-03T06:58:57;73.05;;;26.00;;
28003;SDS011;15330;51.234;6.754;2023-03-03T07:03:51;71.78;;;27.10;;
28003;SDS011;15330;51.234;6.754;2023-03-03T07:06:23;65.63;;;25.70;;
28003;SDS011;15330;51.234;6.754;2023-03-03T07:11:18;66.75;;;26.50;;
28003;SDS011;15330;51.234;6.754;2023-03-03T07:13:47;71.70;;;25.75;;
28003;SDS011;15330;51.234;6.754;2023-03-03T07:16:17;72.63;;;26.92;;
28003;SDS011;15330;51.234;6.754;2023-03-03T07:18:56;69.28;;;25.88;;
28003;SDS011;15330;51.234;6.754;2023-03-03T07:26:59;70.63;;;26.05;;
28003;SDS011;15330;51.234;6.754;2023-03-03T07:29:31;67.88;;;25.77;;
28003;SDS011;15330;51.234;6.754;2023-03-03T07:31:58;101.85;;;35.53;;
28003;SDS011;15330;51.234;6.754;2023-03-03T07:34:28;67.68;;;27.27;;
28003;SDS011;15330;51.234;6.754;2023-03-03T07:37:01;79.13;;;30.08;;
28003;SDS011;15330;51.234;6.754;2023-03-03T07:39:34;87.43;;;30.40;;
28003;SDS011;15330;51.234;6.754;2023-03-03T07:44:34;75.45;;;29.85;;
28003;SDS011;15330;51.234;6.754;2023-03-03T07:49:41;83.97;;;30.45;;
28003;SDS011;15330;51.234;6.754;2023-03-03T07:52:17;85.05;;;31.17;;
28003;SDS011;15330;51.234;6.754;2023-03-03T07:54:48;80.07;;;29.77;;
28003;SDS011;15330;51.234;6.754;2023-03-03T07:57:47;80.97;;;28.85;;
28003;SDS011;15330;51.234;6.754;2023-03-03T08:05:26;88.13;;;31.75;;
28003;SDS011;15330;51.234;6.754;2023-03-03T08:10:44;82.45;;;28.20;;
28003;SDS011;15330;51.234;6.754;2023-03-03T08:13:17;79.95;;;28.38;;
28003;SDS011;15330;51.234;6.754;2023-03-03T08:16:00;86.57;;;29.77;;
28003;SDS011;15330;51.234;6.754;2023-03-03T08:18:29;85.40;;;30.88;;
28003;SDS011;15330;51.234;6.754;2023-03-03T08:23:41;93.18;;;32.72;;
28003;SDS011;15330;51.234;6.754;2023-03-03T08:26:07;98.72;;;33.97;;
28003;SDS011;15330;51.234;6.754;2023-03-03T08:28:33;85.57;;;30.90;;
28003;SDS011;15330;51.234;6.754;2023-03-03T08:30:59;99.57;;;33.45;;
28003;SDS011;15330;51.234;6.754;2023-03-03T08:33:24;95.45;;;31.13;;
28003;SDS011;15330;51.234;6.754;2023-03-03T08:35:49;111.35;;;32.67;;
28003;SDS011;15330;51.234;6.754;2023-03-03T08:38:16;80.82;;;28.33;;
28003;SDS011;15330;51.234;6.754;2023-03-03T08:40:43;84.03;;;29.92;;
28003;SDS011;15330;51.234;6.754;2023-03-03T08:43:10;88.80;;;30.85;;
28003;SDS011;15330;51.234;6.754;2023-03-03T08:45:41;83.20;;;29.42;;
28003;SDS011;15330;51.234;6.754;2023-03-03T08:48:10;94.80;;;32.45;;
28003;SDS011;15330;51.234;6.754;2023-03-03T08:50:36;79.32;;;30.83;;
28003;SDS011;15330;51.234;6.754;2023-03-03T08:53:02;90.25;;;31.50;;
28003;SDS011;15330;51.234;6.754;2023-03-03T08:55:28;88.90;;;31.88;;
28003;SDS011;15330;51.234;6.754;2023-03-03T08:57:54;88.53;;;30.17;;
28003;SDS011;15330;51.234;6.754;2023-03-03T09:00:20;92.70;;;32.92;;
28003;SDS011;15330;51.234;6.754;2023-03-03T09:02:46;92.50;;;30.98;;
28003;SDS011;15330;51.234;6.754;2023-03-03T09:05:12;96.95;;;35.95;;
28003;SDS011;15330;51.234;6.754;2023-03-03T09:07:38;94.45;;;33.80;;
28003;SDS011;15330;51.234;6.754;2023-03-03T09:10:04;91.95;;;31.67;;
28003;SDS011;15330;51.234;6.754;2023-03-03T09:12:35;96.10;;;35.30;;
28003;SDS011;15330;51.234;6.754;2023-03-03T09:15:45;92.25;;;32.03;;
28003;SDS011;15330;51.234;6.754;2023-03-03T09:17:53;108.13;;;34.35;;
28003;SDS011;15330;51.234;6.754;2023-03-03T09:22:51;103.25;;;35.38;;
28003;SDS011;15330;51.234;6.754;2023-03-03T09:27:59;105.95;;;36.03;;
28003;SDS011;15330;51.234;6.754;2023-03-03T09:33:18;112.18;;;38.13;;
28003;SDS011;15330;51.234;6.754;2023-03-03T09:35:45;95.82;;;34.03;;
28003;SDS011;15330;51.234;6.754;2023-03-03T09:44:00;103.50;;;35.92;;
28003;SDS011;15330;51.234;6.754;2023-03-03T10:05:43;84.78;;;30.65;;
28003;SDS011;15330;51.234;6.754;2023-03-03T10:08:21;91.95;;;33.28;;
28003;SDS011;15330;51.234;6.754;2023-03-03T10:17:48;85.05;;;30.48;;
28003;SDS011;15330;51.234;6.754;2023-03-03T10:19:59;87.10;;;29.35;;
28003;SDS011;15330;51.234;6.754;2023-03-03T10:35:49;81.22;;;29.40;;
28003;SDS011;15330;51.234;6.754;2023-03-03T10:41:24;69.47;;;26.70;;
28003;SDS011;15330;51.234;6.754;2023-03-03T11:00:23;85.72;;;30.73;;
28003;SDS011;15330;51.234;6.754;2023-03-03T11:14:10;63.22;;;24.55;;
28003;SDS011;15330;51.234;6.754;2023-03-03T11:33:52;77.53;;;24.73;;
28003;SDS011;15330;51.234;6.754;2023-03-03T11:36:17;71.68;;;25.52;;
28003;SDS011;15330;51.234;6.754;2023-03-03T11:49:40;63.67;;;23.88;;
28003;SDS011;15330;51.234;6.754;2023-03-03T11:54:49;92.60;;;37.45;;
28003;SDS011;15330;51.234;6.754;2023-03-03T11:57:21;85.68;;;33.13;;
28003;SDS011;15330;51.234;6.754;2023-03-03T12:13:57;67.30;;;24.48;;
28003;SDS011;15330;51.234;6.754;2023-03-03T12:18:50;68.40;;;23.45;;
28003;SDS011;15330;51.234;6.754;2023-03-03T12:27:06;81.50;;;30.65;;
28003;SDS011;15330;51.234;6.754;2023-03-03T12:43:41;60.33;;;23.58;;
28003;SDS011;15330;51.234;6.754;2023-03-03T12:48:53;60.22;;;23.77;;
28003;SDS011;15330;51.234;6.754;2023-03-03T12:51:26;71.55;;;27.42;;
28003;SDS011;15330;51.234;6.754;2023-03-03T13:04:55;55.50;;;21.08;;
28003;SDS011;15330;51.234;6.754;2023-03-03T13:13:21;56.88;;;24.55;;
28003;SDS011;15330;51.234;6.754;2023-03-03T13:18:24;53.33;;;22.27;;
28003;SDS011;15330;51.234;6.754;2023-03-03T13:23:59;55.00;;;21.33;;
28003;SDS011;15330;51.234;6.754;2023-03-03T13:32:18;59.22;;;24.50;;
28003;SDS011;15330;51.234;6.754;2023-03-03T13:34:54;53.90;;;23.23;;
28003;SDS011;15330;51.234;6.754;2023-03-03T13:48:11;53.28;;;22.00;;
28003;SDS011;15330;51.234;6.754;2023-03-03T13:51:01;55.85;;;20.70;;
28003;SDS011;15330;51.234;6.754;2023-03-03T13:56:13;54.35;;;22.83;;
28003;SDS011;15330;51.234;6.754;2023-03-03T14:07:18;52.90;;;23.58;;
28003;SDS011;15330;51.234;6.754;2023-03-03T14:09:55;50.00;;;22.95;;
28003;SDS011;15330;51.234;6.754;2023-03-03T14:20:14;54.35;;;22.33;;
28003;SDS011;15330;51.234;6.754;2023-03-03T14:22:54;54.45;;;20.45;;
28003;SDS011;15330;51.234;6.754;2023-03-03T14:25:23;54.65;;;22.48;;
28003;SDS011;15330;51.234;6.754;2023-03-03T14:33:30;54.83;;;24.60;;
28003;SDS011;15330;51.234;6.754;2023-03-03T14:35:32;50.30;;;22.33;;
28003;SDS011;15330;51.234;6.754;2023-03-03T14:38:02;55.97;;;24.65;;
28003;SDS011;15330;51.234;6.754;2023-03-03T14:40:35;51.65;;;24.80;;
28003;SDS011;15330;51.234;6.754;2023-03-03T14:43:22;56.15;;;26.27;;
28003;SDS011;15330;51.234;6.754;2023-03-03T14:45:50;61.72;;;25.98;;
28003;SDS011;15330;51.234;6.754;2023-03-03T14:48:24;64.45;;;28.13;;
28003;SDS011;15330;51.234;6.754;2023-03-03T14:50:57;52.90;;;23.98;;
28003;SDS011;15330;51.234;6.754;2023-03-03T14:53:32;55.20;;;24.75;;
28003;SDS011;15330;51.234;6.754;2023-03-03T14:56:13;54.47;;;23.60;;
28003;SDS011;15330;51.234;6.754;2023-03-03T14:58:41;61.33;;;26.02;;
28003;SDS011;15330;51.234;6.754;2023-03-03T15:01:21;53.25;;;25.52;;
28003;SDS011;15330;51.234;6.754;2023-03-03T15:04:02;54.78;;;25.75;;
28003;SDS011;15330;51.234;6.754;2023-03-03T15:08:53;57.17;;;27.20;;
28003;SDS011;15330;51.234;6.754;2023-03-03T15:11:20;59.92;;;26.60;;
28003;SDS011;15330;51.234;6.754;2023-03-03T15:13:52;57.15;;;27.10;;
28003;SDS011;15330;51.234;6.754;2023-03-03T15:16:30;58.90;;;27.30;;
28003;SDS011;15330;51.234;6.754;2023-03-03T15:21:25;62.15;;;28.58;;
28003;SDS011;15330;51.234;6.754;2023-03-03T15:26:43;57.33;;;27.77;;
28003;SDS011;15330;51.234;6.754;2023-03-03T15:29:16;65.53;;;29.40;;
28003;SDS011;15330;51.234;6.754;2023-03-03T15:32:12;56.67;;;26.77;;
28003;SDS011;15330;51.234;6.754;2023-03-03T15:40:22;62.33;;;29.48;;
28003;SDS011;15330;51.234;6.754;2023-03-03T15:43:04;56.70;;;27.38;;
28003;SDS011;15330;51.234;6.754;2023-03-03T15:45:31;55.15;;;27.55;;
28003;SDS011;15330;51.234;6.754;2023-03-03T15:50:54;59.97;;;28.30;;
28003;SDS011;15330;51.234;6.754;2023-03-03T15:54:24;61.50;;;30.70;;
28003;SDS011;15330;51.234;6.754;2023-03-03T16:01:42;56.88;;;27.85;;
28003;SDS011;15330;51.234;6.754;2023-03-03T16:04:17;65.75;;;30.13;;
28003;SDS011;15330;51.234;6.754;2023-03-03T16:09:56;55.28;;;28.55;;
28003;SDS011;15330;51.234;6.754;2023-03-03T16:12:51;58.88;;;29.67;;
28003;SDS011;15330;51.234;6.754;2023-03-03T16:15:40;77.30;;;36.40;;
28003;SDS011;15330;51.234;6.754;2023-03-03T16:34:57;61.55;;;29.92;;
28003;SDS011;15330;51.234;6.754;2023-03-03T16:40:14;62.15;;;30.23;;
28003;SDS011;15330;51.234;6.754;2023-03-03T16:42:47;63.58;;;30.05;;
28003;SDS011;15330;51.234;6.754;2023-03-03T16:45:20;70.45;;;32.15;;
28003;SDS011;15330;51.234;6.754;2023-03-03T17:04:30;61.15;;;29.80;;
28003;SDS011;15330;51.234;6.754;2023-03-03T17:10:44;70.57;;;31.70;;
28003;SDS011;15330;51.234;6.754;2023-03-03T17:18:39;90.78;;;41.60;;
28003;SDS011;15330;51.234;6.754;2023-03-03T17:21:38;75.82;;;36.53;;
28003;SDS011;15330;51.234;6.754;2023-03-03T17:26:59;100.68;;;44.28;;
28003;SDS011;15330;51.234;6.754;2023-03-03T17:45:50;84.50;;;35.42;;
28003;SDS011;15330;51.234;6.754;2023-03-03T17:59:07;78.90;;;36.50;;
28003;SDS011;15330;51.234;6.754;2023-03-03T18:07:42;84.45;;;38.08;;
28003;SDS011;15330;51.234;6.754;2023-03-03T18:33:06;99.80;;;43.40;;
28003;SDS011;15330;51.234;6.754;2023-03-03T18:35:34;108.05;;;48.42;;
28003;SDS011;15330;51.234;6.754;2023-03-03T18:40:56;133.70;;;59.58;;
28003;SDS011;15330;51.234;6.754;2023-03-03T18:56:49;101.00;;;40.38;;
28003;SDS011;15330;51.234;6.754;2023-03-03T19:01:55;94.95;;;40.13;;
28003;SDS011;15330;51.234;6.754;2023-03-03T19:04:38;102.33;;;44.97;;
28003;SDS011;15330;51.234;6.754;2023-03-03T19:07:13;99.00;;;42.53;;
28003;SDS011;15330;51.234;6.754;2023-03-03T19:12:11;115.97;;;48.05;;
28003;SDS011;15330;51.234;6.754;2023-03-03T19:14:40;110.07;;;48.85;;
28003;SDS011;15330;51.234;6.754;2023-03-03T19:22:59;92.10;;;40.28;;
28003;SDS011;15330;51.234;6.754;2023-03-03T19:25:31;90.10;;;38.78;;
28003;SDS011;15330;51.234;6.754;2023-03-03T19:33:52;95.22;;;39.55;;
28003;SDS011;15330;51.234;6.754;2023-03-03T19:39:02;88.53;;;38.38;;
28003;SDS011;15330;51.234;6.754;2023-03-03T19:47:02;96.72;;;38.28;;
28003;SDS011;15330;51.234;6.754;2023-03-03T19:52:31;84.70;;;38.08;;
28003;SDS011;15330;51.234;6.754;2023-03-03T19:57:55;98.38;;;42.78;;
28003;SDS011;15330;51.234;6.754;2023-03-03T20:08:17;84.78;;;36.67;;
28003;SDS011;15330;51.234;6.754;2023-03-03T20:10:53;86.55;;;39.05;;
28003;SDS011;15330;51.234;6.754;2023-03-03T20:18:49;82.55;;;38.13;;
28003;SDS011;15330;51.234;6.754;2023-03-03T20:21:25;86.32;;;40.30;;
28003;SDS011;15330;51.234;6.754;2023-03-03T20:29:54;78.03;;;34.97;;
28003;SDS011;15330;51.234;6.754;2023-03-03T20:40:30;84.60;;;36.42;;
28003;SDS011;15330;51.234;6.754;2023-03-03T20:43:24;79.03;;;36.17;;
28003;SDS011;15330;51.234;6.754;2023-03-03T20:46:11;76.68;;;34.03;;
28003;SDS011;15330;51.234;6.754;2023-03-03T20:54:25;85.03;;;37.47;;
28003;SDS011;15330;51.234;6.754;2023-03-03T20:59:42;84.30;;;36.60;;
28003;SDS011;15330;51.234;6.754;2023-03-03T21:02:25;75.97;;;32.20;;
28003;SDS011;15330;51.234;6.754;2023-03-03T21:05:08;74.65;;;32.13;;
28003;SDS011;15330;51.234;6.754;2023-03-03T21:07:58;71.22;;;31.65;;
28003;SDS011;15330;51.234;6.754;2023-03-03T21:10:26;73.18;;;33.13;;
28003;SDS011;15330;51.234;6.754;2023-03-03T21:12:55;76.18;;;33.67;;
28003;SDS011;15330;51.234;6.754;2023-03-03T21:15:24;88.50;;;40.78;;
28003;SDS011;15330;51.234;6.754;2023-03-03T21:17:55;81.97;;;39.67;;
28003;SDS011;15330;51.234;6.754;2023-03-03T21:22:50;86.68;;;38.42;;
28003;SDS011;15330;51.234;6.754;2023-03-03T21:28:17;69.75;;;32.67;;
28003;SDS011;15330;51.234;6.754;2023-03-03T21:36:03;78.25;;;35.95;;
28003;SDS011;15330;51.234;6.754;2023-03-03T21:38:31;78.88;;;35.85;;
28003;SDS011;15330;51.234;6.754;2023-03-03T21:41:01;71.80;;;31.60;;
28003;SDS011;15330;51.234;6.754;2023-03-03T21:43:37;72.10;;;31.00;;
28003;SDS011;15330;51.234;6.754;2023-03-03T21:46:04;69.25;;;31.30;;
28003;SDS011;15330;51.234;6.754;2023-03-03T21:48:30;70.85;;;32.08;;
28003;SDS011;15330;51.234;6.754;2023-03-03T21:50:55;74.30;;;32.78;;
28003;SDS011;15330;51.234;6.754;2023-03-03T21:53:21;70.93;;;32.03;;
28003;SDS011;15330;51.234;6.754;2023-03-03T21:55:48;68.88;;;31.10;;
28003;SDS011;15330;51.234;6.754;2023-03-03T21:58:17;70.07;;;30.15;;
28003;SDS011;15330;51.234;6.754;2023-03-03T22:00:43;65.15;;;28.10;;
28003;SDS011;15330;51.234;6.754;2023-03-03T22:03:09;63.50;;;26.15;;
28003;SDS011;15330;51.234;6.754;2023-03-03T22:05:34;60.00;;;27.20;;
28003;SDS011;15330;51.234;6.754;2023-03-03T22:08:00;55.83;;;25.63;;
28003;SDS011;15330;51.234;6.754;2023-03-03T22:10:26;54.22;;;25.38;;
28003;SDS011;15330;51.234;6.754;2023-03-03T22:12:51;55.55;;;26.25;;
28003;SDS011;15330;51.234;6.754;2023-03-03T22:15:17;54.05;;;25.92;;
28003;SDS011;15330;51.234;6.754;2023-03-03T22:17:42;52.35;;;24.85;;
28003;SDS011;15330;51.234;6.754;2023-03-03T22:20:08;47.58;;;23.52;;
28003;SDS011;15330;51.234;6.754;2023-03-03T22:22:36;54.83;;;25.25;;
28003;SDS011;15330;51.234;6.754;2023-03-03T22:25:01;56.05;;;24.75;;
28003;SDS011;15330;51.234;6.754;2023-03-03T22:27:26;59.22;;;27.30;;
28003;SDS011;15330;51.234;6.754;2023-03-03T22:29:52;52.80;;;23.90;;
28003;SDS011;15330;51.234;6.754;2023-03-03T22:32:17;47.95;;;23.63;;